sensor_id;sensor_type;location;lat;lon;timestamp;P1;durP1;ratioP1;P2;durP2;ratioP2
2604;SDS011;1312;50.298;8.520;2024-02-15T00:00:44;7.77;;;6.80;;
2604;SDS011;1312;50.298;8.520;2024-02-15T00:03:12;8.63;;;7.40;;
2604;SDS011;1312;50.298;8.520;2024-02-15T00:05:41;9.73;;;7.87;;
2604;SDS011;1312;50.298;8.520;2024-02-15T00:08:12;8.87;;;6.90;;
2604;SDS011;1312;50.298;8.520;2024-02-15T00:10:43;7.73;;;6.80;;
2604;SDS011;1312;50.298;8.520;2024-02-15T00:13:12;12.00;;;7.97;;
2604;SDS011;1312;50.298;8.520;2024-02-15T00:15:41;8.40;;;7.60;;
2604;SDS011;1312;50.298;8.520;2024-02-15T00:18:09;8.93;;;7.40;;
2604;SDS011;1312;50.298;8.520;2024-02-15T00:20:37;7.97;;;7.17;;
2604;SDS011;1312;50.298;8.520;2024-02-15T00:23:06;7.30;;;6.60;;
2604;SDS011;1312;50.298;8.520;2024-02-15T00:25:34;7.53;;;6.60;;
2604;SDS011;1312;50.298;8.520;2024-02-15T00:28:04;8.23;;;6.43;;
2604;SDS011;1312;50.298;8.520;2024-02-15T00:30:33;8.50;;;7.57;;
2604;SDS011;1312;50.298;8.520;2024-02-15T00:33:02;10.40;;;7.47;;
2604;SDS011;1312;50.298;8.520;2024-02-15T00:35:32;7.93;;;7.00;;
2604;SDS011;1312;50.298;8.520;2024-02-15T00:38:00;7.97;;;7.17;;
2604;SDS011;1312;50.298;8.520;2024-02-15T00:40:29;7.43;;;6.73;;
2604;SDS011;1312;50.298;8.520;2024-02-15T00:42:58;7.77;;;6.53;;
2604;SDS011;1312;50.298;8.520;2024-02-15T00:45:27;11.90;;;7.73;;
2604;SDS011;1312;50.298;8.520;2024-02-15T00:47:55;9.00;;;7.70;;
2604;SDS011;1312;50.298;8.520;2024-02-15T00:50:24;8.63;;;6.93;;
2604;SDS011;1312;50.298;8.520;2024-02-15T00:52:55;8.50;;;7.70;;
2604;SDS011;1312;50.298;8.520;2024-02-15T00:55:23;10.17;;;7.60;;
2604;SDS011;1312;50.298;8.520;2024-02-15T00:57:51;7.90;;;7.30;;
2604;SDS011;1312;50.298;8.520;2024-02-15T01:00:20;7.10;;;5.93;;
2604;SDS011;1312;50.298;8.520;2024-02-15T01:02:49;11.10;;;7.13;;
2604;SDS011;1312;50.298;8.520;2024-02-15T01:05:19;7.30;;;6.60;;
2604;SDS011;1312;50.298;8.520;2024-02-15T01:07:48;10.20;;;7.93;;
2604;SDS011;1312;50.298;8.520;2024-02-15T01:10:16;7.10;;;6.40;;
2604;SDS011;1312;50.298;8.520;2024-02-15T01:12:44;10.73;;;7.23;;
2604;SDS011;1312;50.298;8.520;2024-02-15T01:15:13;9.53;;;6.53;;
2604;SDS011;1312;50.298;8.520;2024-02-15T01:17:44;8.67;;;7.03;;
2604;SDS011;1312;50.298;8.520;2024-02-15T01:20:14;9.63;;;7.03;;
2604;SDS011;1312;50.298;8.520;2024-02-15T01:22:42;8.30;;;6.83;;
2604;SDS011;1312;50.298;8.520;2024-02-15T01:25:11;7.70;;;7.00;;
2604;SDS011;1312;50.298;8.520;2024-02-15T01:27:41;8.40;;;6.10;;
2604;SDS011;1312;50.298;8.520;2024-02-15T01:30:10;9.60;;;6.93;;
2604;SDS011;1312;50.298;8.520;2024-02-15T01:32:38;9.03;;;7.63;;
2604;SDS011;1312;50.298;8.520;2024-02-15T01:35:09;6.60;;;5.97;;
2604;SDS011;1312;50.298;8.520;2024-02-15T01:37:38;8.47;;;7.67;;
2604;SDS011;1312;50.298;8.520;2024-02-15T01:40:07;10.17;;;6.93;;
2604;SDS011;1312;50.298;8.520;2024-02-15T01:42:39;7.53;;;6.27;;
2604;SDS011;1312;50.298;8.520;2024-02-15T01:45:08;10.43;;;6.60;;
2604;SDS011;1312;50.298;8.520;2024-02-15T01:47:38;8.03;;;6.70;;
2604;SDS011;1312;50.298;8.520;2024-02-15T01:50:07;9.03;;;6.97;;
2604;SDS011;1312;50.298;8.520;2024-02-15T01:52:36;7.97;;;7.27;;
2604;SDS011;1312;50.298;8.520;2024-02-15T01:55:06;8.60;;;7.90;;
2604;SDS011;1312;50.298;8.520;2024-02-15T01:57:35;10.63;;;7.20;;
2604;SDS011;1312;50.298;8.520;2024-02-15T02:00:05;10.73;;;9.63;;
2604;SDS011;1312;50.298;8.520;2024-02-15T02:02:35;14.23;;;13.10;;
2604;SDS011;1312;50.298;8.520;2024-02-15T02:05:05;13.30;;;12.40;;
2604;SDS011;1312;50.298;8.520;2024-02-15T02:07:34;14.40;;;13.20;;
2604;SDS011;1312;50.298;8.520;2024-02-15T02:10:03;14.80;;;13.60;;
2604;SDS011;1312;50.298;8.520;2024-02-15T02:12:33;16.70;;;15.40;;
2604;SDS011;1312;50.298;8.520;2024-02-15T02:15:01;17.17;;;15.83;;
2604;SDS011;1312;50.298;8.520;2024-02-15T02:17:30;17.10;;;15.80;;
2604;SDS011;1312;50.298;8.520;2024-02-15T02:19:58;18.53;;;17.10;;
2604;SDS011;1312;50.298;8.520;2024-02-15T02:22:26;16.97;;;15.57;;
2604;SDS011;1312;50.298;8.520;2024-02-15T02:25:03;17.33;;;16.00;;
2604;SDS011;1312;50.298;8.520;2024-02-15T02:27:34;20.27;;;18.57;;
2604;SDS011;1312;50.298;8.520;2024-02-15T02:30:03;21.70;;;19.40;;
2604;SDS011;1312;50.298;8.520;2024-02-15T02:32:34;20.30;;;18.50;;
2604;SDS011;1312;50.298;8.520;2024-02-15T02:35:03;24.83;;;22.23;;
2604;SDS011;1312;50.298;8.520;2024-02-15T02:37:33;23.27;;;20.77;;
2604;SDS011;1312;50.298;8.520;2024-02-15T02:40:05;21.97;;;19.77;;
2604;SDS011;1312;50.298;8.520;2024-02-15T02:42:35;23.83;;;21.37;;
2604;SDS011;1312;50.298;8.520;2024-02-15T02:45:04;23.47;;;21.10;;
2604;SDS011;1312;50.298;8.520;2024-02-15T02:47:32;21.73;;;19.53;;
2604;SDS011;1312;50.298;8.520;2024-02-15T02:50:01;22.30;;;20.03;;
2604;SDS011;1312;50.298;8.520;2024-02-15T02:52:29;20.27;;;18.33;;
2604;SDS011;1312;50.298;8.520;2024-02-15T02:54:58;23.30;;;20.80;;
2604;SDS011;1312;50.298;8.520;2024-02-15T02:57:27;17.90;;;16.30;;
2604;SDS011;1312;50.298;8.520;2024-02-15T02:59:58;16.80;;;15.20;;
2604;SDS011;1312;50.298;8.520;2024-02-15T03:02:26;14.17;;;12.00;;
2604;SDS011;1312;50.298;8.520;2024-02-15T03:04:56;12.77;;;11.47;;
2604;SDS011;1312;50.298;8.520;2024-02-15T03:07:26;9.80;;;8.13;;
2604;SDS011;1312;50.298;8.520;2024-02-15T03:09:54;7.40;;;6.60;;
2604;SDS011;1312;50.298;8.520;2024-02-15T03:12:22;8.23;;;7.27;;
2604;SDS011;1312;50.298;8.520;2024-02-15T03:14:54;8.00;;;6.00;;
2604;SDS011;1312;50.298;8.520;2024-02-15T03:17:23;9.47;;;6.60;;
2604;SDS011;1312;50.298;8.520;2024-02-15T03:19:52;7.67;;;6.20;;
2604;SDS011;1312;50.298;8.520;2024-02-15T03:22:22;6.67;;;5.90;;
2604;SDS011;1312;50.298;8.520;2024-02-15T03:24:51;7.23;;;6.10;;
2604;SDS011;1312;50.298;8.520;2024-02-15T03:27:20;6.30;;;5.83;;
2604;SDS011;1312;50.298;8.520;2024-02-15T03:29:49;7.50;;;6.13;;
2604;SDS011;1312;50.298;8.520;2024-02-15T03:32:20;7.67;;;6.60;;
2604;SDS011;1312;50.298;8.520;2024-02-15T03:34:48;6.90;;;6.20;;
2604;SDS011;1312;50.298;8.520;2024-02-15T03:37:17;11.03;;;6.73;;
2604;SDS011;1312;50.298;8.520;2024-02-15T03:39:46;6.83;;;6.23;;
2604;SDS011;1312;50.298;8.520;2024-02-15T03:42:15;7.20;;;6.50;;
2604;SDS011;1312;50.298;8.520;2024-02-15T03:44:43;9.73;;;6.70;;
2604;SDS011;1312;50.298;8.520;2024-02-15T03:47:11;7.10;;;6.50;;
2604;SDS011;1312;50.298;8.520;2024-02-15T03:49:42;11.00;;;6.93;;
2604;SDS011;1312;50.298;8.520;2024-02-15T03:52:11;10.90;;;7.00;;
2604;SDS011;1312;50.298;8.520;2024-02-15T03:54:38;8.57;;;6.40;;
2604;SDS011;1312;50.298;8.520;2024-02-15T03:57:09;8.00;;;6.37;;
2604;SDS011;1312;50.298;8.520;2024-02-15T03:59:38;11.50;;;7.43;;
2604;SDS011;1312;50.298;8.520;2024-02-15T04:02:07;7.80;;;7.00;;
2604;SDS011;1312;50.298;8.520;2024-02-15T04:04:40;8.87;;;6.23;;
2604;SDS011;1312;50.298;8.520;2024-02-15T04:07:11;6.47;;;5.90;;
2604;SDS011;1312;50.298;8.520;2024-02-15T04:09:39;8.13;;;6.13;;
2604;SDS011;1312;50.298;8.520;2024-02-15T04:12:07;6.60;;;6.00;;
2604;SDS011;1312;50.298;8.520;2024-02-15T04:14:36;8.93;;;6.40;;
2604;SDS011;1312;50.298;8.520;2024-02-15T04:17:04;8.23;;;6.80;;
2604;SDS011;1312;50.298;8.520;2024-02-15T04:19:32;8.00;;;7.17;;
2604;SDS011;1312;50.298;8.520;2024-02-15T04:22:01;8.33;;;6.00;;
2604;SDS011;1312;50.298;8.520;2024-02-15T04:24:34;10.03;;;6.90;;
2604;SDS011;1312;50.298;8.520;2024-02-15T04:27:06;7.40;;;6.67;;
2604;SDS011;1312;50.298;8.520;2024-02-15T04:29:35;7.67;;;6.63;;
2604;SDS011;1312;50.298;8.520;2024-02-15T04:32:07;9.63;;;6.73;;
2604;SDS011;1312;50.298;8.520;2024-02-15T04:34:36;6.67;;;6.07;;
2604;SDS011;1312;50.298;8.520;2024-02-15T04:37:04;8.33;;;6.27;;
2604;SDS011;1312;50.298;8.520;2024-02-15T04:39:35;7.93;;;6.47;;
2604;SDS011;1312;50.298;8.520;2024-02-15T04:42:05;7.67;;;5.90;;
2604;SDS011;1312;50.298;8.520;2024-02-15T04:44:37;7.10;;;5.07;;
2604;SDS011;1312;50.298;8.520;2024-02-15T04:47:06;9.80;;;5.73;;
2604;SDS011;1312;50.298;8.520;2024-02-15T04:49:34;9.23;;;5.40;;
2604;SDS011;1312;50.298;8.520;2024-02-15T04:52:04;7.80;;;5.30;;
2604;SDS011;1312;50.298;8.520;2024-02-15T04:54:33;8.20;;;5.97;;
2604;SDS011;1312;50.298;8.520;2024-02-15T04:57:03;7.23;;;5.50;;
2604;SDS011;1312;50.298;8.520;2024-02-15T04:59:32;9.07;;;5.63;;
2604;SDS011;1312;50.298;8.520;2024-02-15T05:02:01;7.20;;;5.03;;
2604;SDS011;1312;50.298;8.520;2024-02-15T05:04:29;6.90;;;4.73;;
2604;SDS011;1312;50.298;8.520;2024-02-15T05:07:02;5.97;;;5.37;;
2604;SDS011;1312;50.298;8.520;2024-02-15T05:09:31;4.93;;;4.53;;
2604;SDS011;1312;50.298;8.520;2024-02-15T05:12:01;6.57;;;4.87;;
2604;SDS011;1312;50.298;8.520;2024-02-15T05:14:31;5.97;;;4.67;;
2604;SDS011;1312;50.298;8.520;2024-02-15T05:17:05;4.60;;;4.10;;
2604;SDS011;1312;50.298;8.520;2024-02-15T05:19:36;4.60;;;4.20;;
2604;SDS011;1312;50.298;8.520;2024-02-15T05:22:04;6.30;;;4.67;;
2604;SDS011;1312;50.298;8.520;2024-02-15T05:24:33;5.73;;;4.73;;
2604;SDS011;1312;50.298;8.520;2024-02-15T05:27:01;6.87;;;4.10;;
2604;SDS011;1312;50.298;8.520;2024-02-15T05:29:32;5.40;;;4.90;;
2604;SDS011;1312;50.298;8.520;2024-02-15T05:32:02;5.33;;;4.67;;
2604;SDS011;1312;50.298;8.520;2024-02-15T05:34:30;5.20;;;4.37;;
2604;SDS011;1312;50.298;8.520;2024-02-15T05:36:59;5.93;;;4.40;;
2604;SDS011;1312;50.298;8.520;2024-02-15T05:39:27;10.57;;;3.70;;
2604;SDS011;1312;50.298;8.520;2024-02-15T05:41:55;5.70;;;4.33;;
2604;SDS011;1312;50.298;8.520;2024-02-15T05:44:26;6.07;;;5.27;;
2604;SDS011;1312;50.298;8.520;2024-02-15T05:46:56;5.23;;;4.70;;
2604;SDS011;1312;50.298;8.520;2024-02-15T05:49:24;5.00;;;4.30;;
2604;SDS011;1312;50.298;8.520;2024-02-15T05:51:52;6.27;;;4.30;;
2604;SDS011;1312;50.298;8.520;2024-02-15T05:54:21;7.37;;;5.30;;
2604;SDS011;1312;50.298;8.520;2024-02-15T05:56:50;5.40;;;4.70;;
2604;SDS011;1312;50.298;8.520;2024-02-15T05:59:20;7.03;;;6.40;;
2604;SDS011;1312;50.298;8.520;2024-02-15T06:01:49;8.80;;;5.70;;
2604;SDS011;1312;50.298;8.520;2024-02-15T06:04:19;7.37;;;4.90;;
2604;SDS011;1312;50.298;8.520;2024-02-15T06:06:50;6.07;;;5.40;;
2604;SDS011;1312;50.298;8.520;2024-02-15T06:09:25;5.97;;;4.67;;
2604;SDS011;1312;50.298;8.520;2024-02-15T06:11:56;5.67;;;4.20;;
2604;SDS011;1312;50.298;8.520;2024-02-15T06:14:24;4.00;;;3.20;;
2604;SDS011;1312;50.298;8.520;2024-02-15T06:16:53;3.90;;;3.57;;
2604;SDS011;1312;50.298;8.520;2024-02-15T06:19:25;13.87;;;12.50;;
2604;SDS011;1312;50.298;8.520;2024-02-15T06:21:54;14.33;;;13.10;;
2604;SDS011;1312;50.298;8.520;2024-02-15T06:24:22;14.33;;;12.83;;
2604;SDS011;1312;50.298;8.520;2024-02-15T06:26:52;12.60;;;11.40;;
2604;SDS011;1312;50.298;8.520;2024-02-15T06:29:26;12.73;;;11.17;;
2604;SDS011;1312;50.298;8.520;2024-02-15T06:32:11;13.03;;;11.77;;
2604;SDS011;1312;50.298;8.520;2024-02-15T06:34:59;18.30;;;14.70;;
2604;SDS011;1312;50.298;8.520;2024-02-15T06:37:45;12.17;;;10.87;;
2604;SDS011;1312;50.298;8.520;2024-02-15T06:40:31;17.23;;;14.47;;
2604;SDS011;1312;50.298;8.520;2024-02-15T06:42:59;14.50;;;10.77;;
2604;SDS011;1312;50.298;8.520;2024-02-15T06:45:27;9.77;;;7.30;;
2604;SDS011;1312;50.298;8.520;2024-02-15T06:47:58;9.07;;;5.77;;
2604;SDS011;1312;50.298;8.520;2024-02-15T06:50:28;6.20;;;5.27;;
2604;SDS011;1312;50.298;8.520;2024-02-15T06:52:56;6.63;;;6.03;;
2604;SDS011;1312;50.298;8.520;2024-02-15T06:55:24;9.20;;;6.57;;
2604;SDS011;1312;50.298;8.520;2024-02-15T06:57:52;6.43;;;5.70;;
2604;SDS011;1312;50.298;8.520;2024-02-15T07:00:21;7.40;;;5.23;;
2604;SDS011;1312;50.298;8.520;2024-02-15T07:02:51;6.20;;;4.83;;
2604;SDS011;1312;50.298;8.520;2024-02-15T07:05:19;10.73;;;5.47;;
2604;SDS011;1312;50.298;8.520;2024-02-15T07:07:51;7.97;;;7.17;;
2604;SDS011;1312;50.298;8.520;2024-02-15T07:10:19;13.63;;;11.83;;
2604;SDS011;1312;50.298;8.520;2024-02-15T07:12:47;10.20;;;9.23;;
2604;SDS011;1312;50.298;8.520;2024-02-15T07:15:16;10.67;;;9.53;;
2604;SDS011;1312;50.298;8.520;2024-02-15T07:17:44;10.23;;;8.67;;
2604;SDS011;1312;50.298;8.520;2024-02-15T07:20:13;13.53;;;9.80;;
2604;SDS011;1312;50.298;8.520;2024-02-15T07:22:43;10.80;;;9.80;;
2604;SDS011;1312;50.298;8.520;2024-02-15T07:25:13;12.43;;;11.13;;
2604;SDS011;1312;50.298;8.520;2024-02-15T07:27:41;12.40;;;11.23;;
2604;SDS011;1312;50.298;8.520;2024-02-15T07:30:10;11.80;;;10.70;;
2604;SDS011;1312;50.298;8.520;2024-02-15T07:32:41;13.40;;;12.20;;
2604;SDS011;1312;50.298;8.520;2024-02-15T07:35:09;13.10;;;11.77;;
2604;SDS011;1312;50.298;8.520;2024-02-15T07:37:39;13.30;;;11.90;;
2604;SDS011;1312;50.298;8.520;2024-02-15T07:40:08;14.23;;;12.20;;
2604;SDS011;1312;50.298;8.520;2024-02-15T07:42:37;12.50;;;11.40;;
2604;SDS011;1312;50.298;8.520;2024-02-15T07:45:06;16.10;;;13.97;;
2604;SDS011;1312;50.298;8.520;2024-02-15T07:47:34;12.50;;;11.27;;
2604;SDS011;1312;50.298;8.520;2024-02-15T07:50:07;16.73;;;13.20;;
2604;SDS011;1312;50.298;8.520;2024-02-15T07:52:36;13.40;;;10.90;;
2604;SDS011;1312;50.298;8.520;2024-02-15T07:55:04;13.00;;;11.00;;
2604;SDS011;1312;50.298;8.520;2024-02-15T07:57:35;11.47;;;10.27;;
2604;SDS011;1312;50.298;8.520;2024-02-15T08:00:05;10.63;;;9.40;;
2604;SDS011;1312;50.298;8.520;2024-02-15T08:02:37;9.77;;;8.77;;
2604;SDS011;1312;50.298;8.520;2024-02-15T08:05:07;9.10;;;8.23;;
2604;SDS011;1312;50.298;8.520;2024-02-15T08:07:37;9.80;;;9.00;;
2604;SDS011;1312;50.298;8.520;2024-02-15T08:10:08;9.67;;;8.60;;
2604;SDS011;1312;50.298;8.520;2024-02-15T08:12:39;12.07;;;9.43;;
2604;SDS011;1312;50.298;8.520;2024-02-15T08:15:10;11.40;;;9.70;;
2604;SDS011;1312;50.298;8.520;2024-02-15T08:17:39;11.20;;;10.10;;
2604;SDS011;1312;50.298;8.520;2024-02-15T08:20:09;9.90;;;9.00;;
2604;SDS011;1312;50.298;8.520;2024-02-15T08:22:37;9.70;;;8.90;;
2604;SDS011;1312;50.298;8.520;2024-02-15T08:25:06;8.77;;;7.97;;
2604;SDS011;1312;50.298;8.520;2024-02-15T08:27:37;7.53;;;6.93;;
2604;SDS011;1312;50.298;8.520;2024-02-15T08:30:10;7.40;;;6.70;;
2604;SDS011;1312;50.298;8.520;2024-02-15T08:32:40;8.40;;;7.50;;
2604;SDS011;1312;50.298;8.520;2024-02-15T08:35:09;6.90;;;6.20;;
2604;SDS011;1312;50.298;8.520;2024-02-15T08:37:38;6.33;;;5.73;;
2604;SDS011;1312;50.298;8.520;2024-02-15T08:40:08;7.33;;;5.80;;
2604;SDS011;1312;50.298;8.520;2024-02-15T08:42:38;6.90;;;5.53;;
2604;SDS011;1312;50.298;8.520;2024-02-15T08:45:07;7.00;;;6.40;;
2604;SDS011;1312;50.298;8.520;2024-02-15T08:47:37;5.60;;;4.60;;
2604;SDS011;1312;50.298;8.520;2024-02-15T08:50:07;5.80;;;5.27;;
2604;SDS011;1312;50.298;8.520;2024-02-15T08:52:36;4.90;;;4.50;;
2604;SDS011;1312;50.298;8.520;2024-02-15T08:55:05;5.23;;;4.53;;
2604;SDS011;1312;50.298;8.520;2024-02-15T08:57:34;8.23;;;5.30;;
2604;SDS011;1312;50.298;8.520;2024-02-15T09:00:02;7.70;;;7.00;;
2604;SDS011;1312;50.298;8.520;2024-02-15T09:02:37;7.60;;;7.00;;
2604;SDS011;1312;50.298;8.520;2024-02-15T09:05:06;9.87;;;9.03;;
2604;SDS011;1312;50.298;8.520;2024-02-15T09:07:35;11.03;;;9.90;;
2604;SDS011;1312;50.298;8.520;2024-02-15T09:10:04;11.10;;;9.90;;
2604;SDS011;1312;50.298;8.520;2024-02-15T09:12:33;10.13;;;9.07;;
2604;SDS011;1312;50.298;8.520;2024-02-15T09:15:03;12.73;;;8.30;;
2604;SDS011;1312;50.298;8.520;2024-02-15T09:17:32;7.60;;;5.73;;
2604;SDS011;1312;50.298;8.520;2024-02-15T09:20:07;7.47;;;6.87;;
2604;SDS011;1312;50.298;8.520;2024-02-15T09:22:41;8.70;;;7.90;;
2604;SDS011;1312;50.298;8.520;2024-02-15T09:25:12;9.23;;;8.43;;
2604;SDS011;1312;50.298;8.520;2024-02-15T09:27:41;8.57;;;7.77;;
2604;SDS011;1312;50.298;8.520;2024-02-15T09:30:10;9.27;;;7.20;;
2604;SDS011;1312;50.298;8.520;2024-02-15T09:32:39;6.80;;;6.03;;
2604;SDS011;1312;50.298;8.520;2024-02-15T09:35:09;6.50;;;5.87;;
2604;SDS011;1312;50.298;8.520;2024-02-15T09:37:42;6.20;;;5.70;;
2604;SDS011;1312;50.298;8.520;2024-02-15T09:40:11;3.80;;;3.47;;
2604;SDS011;1312;50.298;8.520;2024-02-15T09:42:42;4.93;;;4.53;;
2604;SDS011;1312;50.298;8.520;2024-02-15T09:45:11;7.93;;;5.40;;
2604;SDS011;1312;50.298;8.520;2024-02-15T09:47:42;4.30;;;4.00;;
2604;SDS011;1312;50.298;8.520;2024-02-15T09:50:12;6.33;;;5.43;;
2604;SDS011;1312;50.298;8.520;2024-02-15T09:52:43;6.47;;;5.87;;
2604;SDS011;1312;50.298;8.520;2024-02-15T09:55:13;6.47;;;5.97;;
2604;SDS011;1312;50.298;8.520;2024-02-15T09:57:42;5.10;;;4.60;;
2604;SDS011;1312;50.298;8.520;2024-02-15T10:00:13;4.07;;;3.77;;
2604;SDS011;1312;50.298;8.520;2024-02-15T10:02:43;5.57;;;4.20;;
2604;SDS011;1312;50.298;8.520;2024-02-15T10:05:13;5.43;;;4.67;;
2604;SDS011;1312;50.298;8.520;2024-02-15T10:07:42;5.57;;;5.17;;
2604;SDS011;1312;50.298;8.520;2024-02-15T10:10:14;8.40;;;7.60;;
2604;SDS011;1312;50.298;8.520;2024-02-15T10:12:43;9.73;;;8.93;;
2604;SDS011;1312;50.298;8.520;2024-02-15T10:15:33;5.40;;;5.00;;
2604;SDS011;1312;50.298;8.520;2024-02-15T10:18:03;6.73;;;6.23;;
2604;SDS011;1312;50.298;8.520;2024-02-15T10:20:36;5.73;;;5.00;;
2604;SDS011;1312;50.298;8.520;2024-02-15T10:23:11;5.20;;;4.63;;
2604;SDS011;1312;50.298;8.520;2024-02-15T10:25:44;5.37;;;4.87;;
2604;SDS011;1312;50.298;8.520;2024-02-15T10:28:12;4.80;;;4.40;;
2604;SDS011;1312;50.298;8.520;2024-02-15T10:30:42;3.60;;;3.30;;
2604;SDS011;1312;50.298;8.520;2024-02-15T10:33:17;3.40;;;3.10;;
2604;SDS011;1312;50.298;8.520;2024-02-15T10:35:49;3.70;;;3.47;;
2604;SDS011;1312;50.298;8.520;2024-02-15T10:38:17;3.80;;;3.50;;
2604;SDS011;1312;50.298;8.520;2024-02-15T10:40:45;4.87;;;4.40;;
2604;SDS011;1312;50.298;8.520;2024-02-15T10:43:13;3.50;;;3.30;;
2604;SDS011;1312;50.298;8.520;2024-02-15T10:45:44;3.90;;;3.60;;
2604;SDS011;1312;50.298;8.520;2024-02-15T10:48:15;3.33;;;3.13;;
2604;SDS011;1312;50.298;8.520;2024-02-15T10:50:44;3.53;;;3.23;;
2604;SDS011;1312;50.298;8.520;2024-02-15T10:53:26;3.10;;;2.90;;
2604;SDS011;1312;50.298;8.520;2024-02-15T10:55:57;2.90;;;2.70;;
2604;SDS011;1312;50.298;8.520;2024-02-15T10:58:43;3.03;;;2.73;;
2604;SDS011;1312;50.298;8.520;2024-02-15T11:01:15;3.43;;;3.20;;
2604;SDS011;1312;50.298;8.520;2024-02-15T11:03:47;3.80;;;2.90;;
2604;SDS011;1312;50.298;8.520;2024-02-15T11:06:18;4.47;;;3.53;;
2604;SDS011;1312;50.298;8.520;2024-02-15T11:08:50;3.93;;;3.57;;
2604;SDS011;1312;50.298;8.520;2024-02-15T11:11:18;6.73;;;3.13;;
2604;SDS011;1312;50.298;8.520;2024-02-15T11:13:46;3.50;;;3.30;;
2604;SDS011;1312;50.298;8.520;2024-02-15T11:19:07;2.80;;;2.60;;
2604;SDS011;1312;50.298;8.520;2024-02-15T11:24:29;3.27;;;2.97;;
2604;SDS011;1312;50.298;8.520;2024-02-15T11:26:59;3.23;;;2.93;;
2604;SDS011;1312;50.298;8.520;2024-02-15T11:29:47;3.20;;;2.90;;
2604;SDS011;1312;50.298;8.520;2024-02-15T11:32:35;3.60;;;3.30;;
2604;SDS011;1312;50.298;8.520;2024-02-15T11:35:16;4.10;;;3.80;;
2604;SDS011;1312;50.298;8.520;2024-02-15T11:37:50;3.83;;;3.00;;
2604;SDS011;1312;50.298;8.520;2024-02-15T11:40:21;3.30;;;2.80;;
2604;SDS011;1312;50.298;8.520;2024-02-15T11:42:50;2.90;;;2.70;;
2604;SDS011;1312;50.298;8.520;2024-02-15T11:45:20;3.30;;;3.00;;
2604;SDS011;1312;50.298;8.520;2024-02-15T11:47:49;3.60;;;3.30;;
2604;SDS011;1312;50.298;8.520;2024-02-15T11:50:19;6.77;;;4.03;;
2604;SDS011;1312;50.298;8.520;2024-02-15T11:52:49;3.00;;;2.80;;
2604;SDS011;1312;50.298;8.520;2024-02-15T11:55:18;3.10;;;2.90;;
2604;SDS011;1312;50.298;8.520;2024-02-15T11:57:57;3.10;;;2.80;;
2604;SDS011;1312;50.298;8.520;2024-02-15T12:00:31;3.57;;;3.30;;
2604;SDS011;1312;50.298;8.520;2024-02-15T12:03:17;7.70;;;7.20;;
2604;SDS011;1312;50.298;8.520;2024-02-15T12:06:05;7.40;;;7.10;;
2604;SDS011;1312;50.298;8.520;2024-02-15T12:08:51;7.70;;;7.20;;
2604;SDS011;1312;50.298;8.520;2024-02-15T12:11:37;7.07;;;6.77;;
2604;SDS011;1312;50.298;8.520;2024-02-15T12:14:25;7.43;;;7.03;;
2604;SDS011;1312;50.298;8.520;2024-02-15T12:17:11;8.20;;;7.67;;
2604;SDS011;1312;50.298;8.520;2024-02-15T12:20:00;7.33;;;6.93;;
2604;SDS011;1312;50.298;8.520;2024-02-15T12:22:35;7.50;;;7.00;;
2604;SDS011;1312;50.298;8.520;2024-02-15T12:25:08;7.40;;;6.90;;
2604;SDS011;1312;50.298;8.520;2024-02-15T12:27:41;7.70;;;7.27;;
2604;SDS011;1312;50.298;8.520;2024-02-15T12:30:14;7.40;;;7.10;;
2604;SDS011;1312;50.298;8.520;2024-02-15T12:32:46;8.00;;;7.50;;
2604;SDS011;1312;50.298;8.520;2024-02-15T12:35:16;9.90;;;9.50;;
2604;SDS011;1312;50.298;8.520;2024-02-15T12:37:47;8.80;;;8.30;;
2604;SDS011;1312;50.298;8.520;2024-02-15T12:40:16;9.20;;;8.80;;
2604;SDS011;1312;50.298;8.520;2024-02-15T12:42:45;7.57;;;7.27;;
2604;SDS011;1312;50.298;8.520;2024-02-15T12:45:18;7.23;;;6.93;;
2604;SDS011;1312;50.298;8.520;2024-02-15T12:47:49;8.20;;;7.50;;
2604;SDS011;1312;50.298;8.520;2024-02-15T12:50:18;7.23;;;6.93;;
2604;SDS011;1312;50.298;8.520;2024-02-15T12:52:48;3.17;;;2.87;;
2604;SDS011;1312;50.298;8.520;2024-02-15T12:55:17;3.50;;;3.20;;
2604;SDS011;1312;50.298;8.520;2024-02-15T12:57:47;3.37;;;3.10;;
2604;SDS011;1312;50.298;8.520;2024-02-15T13:00:20;4.00;;;3.10;;
2604;SDS011;1312;50.298;8.520;2024-02-15T13:02:50;3.80;;;3.37;;
2604;SDS011;1312;50.298;8.520;2024-02-15T13:05:19;3.93;;;3.00;;
2604;SDS011;1312;50.298;8.520;2024-02-15T13:07:48;4.10;;;3.40;;
2604;SDS011;1312;50.298;8.520;2024-02-15T13:10:16;4.83;;;3.30;;
2604;SDS011;1312;50.298;8.520;2024-02-15T13:12:45;5.00;;;3.10;;
2604;SDS011;1312;50.298;8.520;2024-02-15T13:15:14;5.27;;;3.13;;
2604;SDS011;1312;50.298;8.520;2024-02-15T13:17:46;5.23;;;2.60;;
2604;SDS011;1312;50.298;8.520;2024-02-15T13:20:15;3.37;;;2.77;;
2604;SDS011;1312;50.298;8.520;2024-02-15T13:22:46;2.73;;;2.60;;
2604;SDS011;1312;50.298;8.520;2024-02-15T13:25:14;3.03;;;2.57;;
2604;SDS011;1312;50.298;8.520;2024-02-15T13:27:43;3.17;;;2.83;;
2604;SDS011;1312;50.298;8.520;2024-02-15T13:30:12;3.47;;;3.10;;
2604;SDS011;1312;50.298;8.520;2024-02-15T13:32:41;3.83;;;3.47;;
2604;SDS011;1312;50.298;8.520;2024-02-15T13:35:10;2.80;;;2.60;;
2604;SDS011;1312;50.298;8.520;2024-02-15T13:37:41;3.43;;;2.77;;
2604;SDS011;1312;50.298;8.520;2024-02-15T13:40:10;3.70;;;3.10;;
2604;SDS011;1312;50.298;8.520;2024-02-15T13:42:42;3.00;;;2.80;;
2604;SDS011;1312;50.298;8.520;2024-02-15T13:45:15;3.30;;;3.10;;
2604;SDS011;1312;50.298;8.520;2024-02-15T13:47:44;3.10;;;2.53;;
2604;SDS011;1312;50.298;8.520;2024-02-15T13:50:15;4.93;;;2.67;;
2604;SDS011;1312;50.298;8.520;2024-02-15T13:52:43;5.07;;;3.27;;
2604;SDS011;1312;50.298;8.520;2024-02-15T13:55:12;3.40;;;3.00;;
2604;SDS011;1312;50.298;8.520;2024-02-15T13:57:41;3.27;;;3.03;;
2604;SDS011;1312;50.298;8.520;2024-02-15T14:00:11;3.23;;;2.93;;
2604;SDS011;1312;50.298;8.520;2024-02-15T14:02:47;3.53;;;2.60;;
2604;SDS011;1312;50.298;8.520;2024-02-15T14:05:18;4.03;;;3.10;;
2604;SDS011;1312;50.298;8.520;2024-02-15T14:07:47;2.90;;;2.60;;
2604;SDS011;1312;50.298;8.520;2024-02-15T14:10:16;4.57;;;3.00;;
2604;SDS011;1312;50.298;8.520;2024-02-15T14:12:45;2.80;;;2.60;;
2604;SDS011;1312;50.298;8.520;2024-02-15T14:15:14;3.10;;;2.90;;
2604;SDS011;1312;50.298;8.520;2024-02-15T14:17:43;3.10;;;2.80;;
2604;SDS011;1312;50.298;8.520;2024-02-15T14:20:12;4.13;;;2.80;;
2604;SDS011;1312;50.298;8.520;2024-02-15T14:22:43;3.37;;;3.07;;
2604;SDS011;1312;50.298;8.520;2024-02-15T14:25:12;3.30;;;2.63;;
2604;SDS011;1312;50.298;8.520;2024-02-15T14:27:40;3.10;;;2.60;;
2604;SDS011;1312;50.298;8.520;2024-02-15T14:30:09;3.33;;;3.00;;
2604;SDS011;1312;50.298;8.520;2024-02-15T14:32:55;3.27;;;2.83;;
2604;SDS011;1312;50.298;8.520;2024-02-15T14:35:31;3.20;;;2.90;;
2604;SDS011;1312;50.298;8.520;2024-02-15T14:38:04;3.53;;;2.87;;
2604;SDS011;1312;50.298;8.520;2024-02-15T14:40:34;4.43;;;3.17;;
2604;SDS011;1312;50.298;8.520;2024-02-15T14:43:06;3.03;;;2.73;;
2604;SDS011;1312;50.298;8.520;2024-02-15T14:45:35;3.03;;;2.80;;
2604;SDS011;1312;50.298;8.520;2024-02-15T14:48:04;3.67;;;3.00;;
2604;SDS011;1312;50.298;8.520;2024-02-15T14:50:34;3.00;;;2.80;;
2604;SDS011;1312;50.298;8.520;2024-02-15T14:53:04;3.73;;;2.90;;
2604;SDS011;1312;50.298;8.520;2024-02-15T14:55:34;3.20;;;2.90;;
2604;SDS011;1312;50.298;8.520;2024-02-15T14:58:06;3.90;;;2.83;;
2604;SDS011;1312;50.298;8.520;2024-02-15T15:00:39;3.10;;;2.87;;
2604;SDS011;1312;50.298;8.520;2024-02-15T15:03:08;3.40;;;3.10;;
2604;SDS011;1312;50.298;8.520;2024-02-15T15:05:38;2.93;;;2.73;;
2604;SDS011;1312;50.298;8.520;2024-02-15T15:08:25;4.77;;;2.77;;
2604;SDS011;1312;50.298;8.520;2024-02-15T15:11:11;3.23;;;3.03;;
2604;SDS011;1312;50.298;8.520;2024-02-15T15:13:58;3.27;;;2.80;;
2604;SDS011;1312;50.298;8.520;2024-02-15T15:16:26;3.00;;;2.80;;
2604;SDS011;1312;50.298;8.520;2024-02-15T15:18:56;2.80;;;2.60;;
2604;SDS011;1312;50.298;8.520;2024-02-15T15:21:24;3.47;;;3.17;;
2604;SDS011;1312;50.298;8.520;2024-02-15T15:23:55;4.17;;;2.73;;
2604;SDS011;1312;50.298;8.520;2024-02-15T15:26:24;3.03;;;2.70;;
2604;SDS011;1312;50.298;8.520;2024-02-15T15:28:52;3.90;;;2.50;;
2604;SDS011;1312;50.298;8.520;2024-02-15T15:31:23;3.00;;;2.80;;
2604;SDS011;1312;50.298;8.520;2024-02-15T15:33:52;4.17;;;3.67;;
2604;SDS011;1312;50.298;8.520;2024-02-15T15:36:22;3.30;;;3.10;;